Time;durP1;ratioP1;P1;durP2;ratioP2;P2;SDS_P1;SDS_P2;PMS_P1;PMS_P2;Temp;Humidity;BMP_temperature;BMP_pressure;BME280_temperature;BME280_humidity;BME280_pressure;Samples;Min_cycle;Max_cycle;Signal;HPM_P1;HPM_P2
2023/09/25 00:00:32;;;;;;;2.10;1.35;;;17.40;1.00;;;;;;5081206;28;20063;-76
2023/09/25 00:03:03;;;;;;;1.90;1.10;;;17.40;1.00;;;;;;5065287;28;20056;-76
2023/09/25 00:05:33;;;;;;;1.83;1.27;;;17.40;1.00;;;;;;5056828;28;20120;-76
2023/09/25 00:08:00;;;;;;;2.53;1.25;;;17.50;1.00;;;;;;5080598;28;20051;-76
2023/09/25 00:10:29;;;;;;;2.10;1.30;;;17.50;1.00;;;;;;5062639;28;20056;-75
2023/09/25 00:12:56;;;;;;;2.38;1.35;;;17.50;1.00;;;;;;5049815;28;20419;-76
2023/09/25 00:15:23;;;;;;;1.65;1.13;;;17.60;1.00;;;;;;5032124;28;20611;-76
2023/09/25 00:17:51;;;;;;;1.77;0.98;;;17.60;1.00;;;;;;5064282;28;20036;-76
2023/09/25 00:20:23;;;;;;;2.15;1.05;;;17.60;1.00;;;;;;5048084;28;20051;-76
2023/09/25 00:22:51;;;;;;;1.85;1.25;;;17.60;1.00;;;;;;5045474;28;20052;-76
2023/09/25 00:25:19;;;;;;;2.90;1.38;;;17.70;1.00;;;;;;5049139;28;20298;-76
2023/09/25 00:27:46;;;;;;;1.75;1.17;;;17.70;1.00;;;;;;5064010;28;20048;-76
2023/09/25 00:30:14;;;;;;;1.55;1.02;;;17.80;1.00;;;;;;5064620;28;20388;-76
2023/09/25 00:32:41;;;;;;;2.13;1.23;;;17.80;1.00;;;;;;5028843;28;20495;-76
2023/09/25 00:35:10;;;;;;;1.75;1.35;;;17.80;1.00;;;;;;5029073;28;20071;-76
2023/09/25 00:37:38;;;;;;;2.20;1.33;;;17.80;1.00;;;;;;5079254;28;20506;-76
2023/09/25 00:40:13;;;;;;;2.53;1.50;;;17.90;1.00;;;;;;5051640;28;20445;-75
2023/09/25 00:42:41;;;;;;;2.67;1.15;;;17.90;1.00;;;;;;5046081;28;20419;-75
2023/09/25 00:45:09;;;;;;;2.92;1.70;;;17.90;1.00;;;;;;5061777;28;20040;-76
2023/09/25 00:47:37;;;;;;;2.65;1.55;;;17.90;1.00;;;;;;5047230;28;20138;-75
2023/09/25 00:50:04;;;;;;;2.03;1.45;;;17.90;1.00;;;;;;5047301;28;20051;-75
2023/09/25 00:52:31;;;;;;;2.92;1.52;;;17.90;1.00;;;;;;5050357;28;20064;-76
2023/09/25 00:55:03;;;;;;;2.28;1.60;;;17.90;1.00;;;;;;5040743;28;20142;-76
2023/09/25 00:57:30;;;;;;;2.67;1.38;;;17.90;1.00;;;;;;5047062;28;20522;-75
2023/09/25 00:59:57;;;;;;;1.88;1.20;;;17.90;1.00;;;;;;5064381;28;20082;-75
2023/09/25 01:02:24;;;;;;;1.92;1.10;;;17.90;1.00;;;;;;5046394;28;20055;-75
2023/09/25 01:04:51;;;;;;;1.92;1.17;;;17.90;1.00;;;;;;5063948;28;20131;-75
2023/09/25 01:07:18;;;;;;;1.85;1.20;;;17.80;1.00;;;;;;5043395;28;20075;-75
2023/09/25 01:10:08;;;;;;;2.70;2.00;;;17.70;1.00;;;;;;5063040;28;20483;-75
2023/09/25 01:12:34;;;;;;;2.97;1.33;;;17.70;1.00;;;;;;5080211;28;20420;-75
2023/09/25 01:15:02;;;;;;;2.67;1.48;;;17.60;1.00;;;;;;5047092;28;20052;-75
2023/09/25 01:17:28;;;;;;;2.03;1.42;;;17.60;1.00;;;;;;5062723;28;20208;-75
2023/09/25 01:19:55;;;;;;;2.42;1.20;;;17.60;1.00;;;;;;5079713;28;20059;-75
2023/09/25 01:22:22;;;;;;;2.53;1.50;;;17.60;1.00;;;;;;5062030;28;20568;-76
2023/09/25 01:24:49;;;;;;;2.08;1.20;;;17.50;1.00;;;;;;5046596;28;20549;-75
2023/09/25 01:27:16;;;;;;;1.70;1.10;;;17.50;1.00;;;;;;5062524;28;20097;-75
2023/09/25 01:29:42;;;;;;;1.67;1.02;;;17.50;1.00;;;;;;5063820;28;20568;-75
2023/09/25 01:32:09;;;;;;;1.60;1.00;;;17.50;4.60;;;;;;5067101;28;20488;-76
2023/09/25 01:34:36;;;;;;;2.38;1.05;;;17.50;7.00;;;;;;5066974;28;20052;-76
2023/09/25 01:37:04;;;;;;;1.55;1.00;;;17.50;26.30;;;;;;5058629;28;20532;-75
2023/09/25 01:39:32;;;;;;;1.77;0.98;;;17.50;51.20;;;;;;5064043;28;20530;-75
2023/09/25 01:41:59;;;;;;;2.15;1.20;;;17.50;57.10;;;;;;5048666;28;20056;-75
2023/09/25 01:44:26;;;;;;;2.80;1.50;;;17.50;88.20;;;;;;5063343;28;20232;-76
2023/09/25 01:46:53;;;;;;;2.20;1.00;;;17.40;97.60;;;;;;5061508;28;20075;-75
2023/09/25 01:49:20;;;;;;;2.00;1.08;;;17.40;99.90;;;;;;5031659;28;20495;-75
2023/09/25 01:51:48;;;;;;;2.35;1.20;;;17.40;99.90;;;;;;5046565;28;20102;-75
2023/09/25 01:54:15;;;;;;;2.50;1.25;;;17.40;99.90;;;;;;5063979;28;20048;-75
2023/09/25 01:56:45;;;;;;;2.40;1.23;;;17.40;99.90;;;;;;5064764;28;20530;-76
2023/09/25 01:59:12;;;;;;;1.40;0.90;;;17.40;99.90;;;;;;5065440;28;20062;-76
2023/09/25 02:01:39;;;;;;;1.83;1.33;;;17.30;99.90;;;;;;5048673;28;20542;-76
2023/09/25 02:04:07;;;;;;;2.47;1.30;;;17.30;99.90;;;;;;5066784;28;20091;-76
2023/09/25 02:06:34;;;;;;;2.38;1.10;;;17.30;99.90;;;;;;5081537;28;20087;-76
2023/09/25 02:09:01;;;;;;;1.67;1.30;;;17.30;99.90;;;;;;5065965;28;20044;-75
2023/09/25 02:11:29;;;;;;;2.20;1.20;;;17.30;99.90;;;;;;5047652;28;20098;-76
2023/09/25 02:13:56;;;;;;;2.33;1.48;;;17.30;99.90;;;;;;5078491;28;20049;-76
2023/09/25 02:16:22;;;;;;;1.92;1.02;;;17.30;99.90;;;;;;5083320;28;20067;-76
2023/09/25 02:18:50;;;;;;;1.85;1.33;;;17.30;99.90;;;;;;5080517;28;20049;-76
2023/09/25 02:21:17;;;;;;;1.98;1.08;;;17.30;99.90;;;;;;5061468;28;20063;-76
2023/09/25 02:23:44;;;;;;;1.80;1.05;;;17.30;1.00;;;;;;5081973;28;20112;-76
2023/09/25 02:26:11;;;;;;;2.60;1.35;;;17.20;1.00;;;;;;5068354;28;20049;-76
2023/09/25 02:28:38;;;;;;;1.65;1.08;;;17.20;1.00;;;;;;5072518;28;20044;-76
2023/09/25 02:31:05;;;;;;;1.60;1.05;;;17.20;1.00;;;;;;5048381;28;20048;-75
2023/09/25 02:33:32;;;;;;;3.08;1.52;;;17.20;77.60;;;;;;5075110;28;20494;-76
2023/09/25 02:36:10;;;;;;;1.58;1.13;;;17.20;99.90;;;;;;5083025;28;20109;-76
2023/09/25 02:38:38;;;;;;;1.98;1.27;;;17.20;99.90;;;;;;5082193;28;20047;-76
2023/09/25 02:41:05;;;;;;;1.42;0.90;;;17.20;99.90;;;;;;5082831;28;20102;-76
2023/09/25 02:43:32;;;;;;;2.97;1.38;;;17.30;99.90;;;;;;5083319;28;20040;-76
2023/09/25 02:45:59;;;;;;;1.75;1.00;;;17.30;99.90;;;;;;5067224;28;20116;-75
2023/09/25 02:48:26;;;;;;;1.67;0.98;;;17.30;99.90;;;;;;5066493;28;20044;-76
2023/09/25 02:50:53;;;;;;;1.58;1.13;;;17.30;99.90;;;;;;5088145;28;20044;-76
2023/09/25 02:53:20;;;;;;;2.25;1.15;;;17.30;99.90;;;;;;5086067;28;20768;-75
2023/09/25 02:55:50;;;;;;;1.65;0.90;;;17.30;99.90;;;;;;5088303;28;20821;-76
2023/09/25 02:58:17;;;;;;;2.28;1.00;;;17.20;99.90;;;;;;5070183;28;20442;-76
2023/09/25 03:00:45;;;;;;;2.10;0.90;;;17.20;1.00;;;;;;5069991;28;20044;-76
2023/09/25 03:03:12;;;;;;;1.73;1.17;;;17.20;99.90;;;;;;5070219;28;20063;-76
2023/09/25 03:05:39;;;;;;;1.77;0.70;;;17.20;99.90;;;;;;5067783;28;20052;-76
2023/09/25 03:08:05;;;;;;;1.83;1.10;;;17.20;1.00;;;;;;5067809;28;20413;-76
2023/09/25 03:10:32;;;;;;;1.75;0.77;;;17.10;99.90;;;;;;5052147;28;20108;-76
2023/09/25 03:12:59;;;;;;;2.47;1.20;;;17.10;99.90;;;;;;5082882;28;20451;-76
2023/09/25 03:15:26;;;;;;;1.65;1.00;;;17.10;99.90;;;;;;5070288;28;20159;-76
2023/09/25 03:17:53;;;;;;;1.30;0.88;;;17.10;99.90;;;;;;5069982;28;20448;-76
2023/09/25 03:20:20;;;;;;;1.33;0.80;;;17.00;99.90;;;;;;5069935;28;20048;-76
2023/09/25 03:22:46;;;;;;;2.00;0.90;;;17.00;2.60;;;;;;5084988;28;20169;-75
2023/09/25 03:25:13;;;;;;;1.10;0.80;;;17.00;99.90;;;;;;5053336;28;20048;-76
2023/09/25 03:27:40;;;;;;;2.50;1.05;;;17.00;99.90;;;;;;5087568;28;20048;-76
2023/09/25 03:30:08;;;;;;;1.23;0.73;;;17.00;1.00;;;;;;5088313;28;20075;-76
2023/09/25 03:32:35;;;;;;;2.00;0.70;;;17.00;1.00;;;;;;5076066;28;20128;-76
2023/09/25 03:35:03;;;;;;;1.25;0.80;;;17.00;43.40;;;;;;5069337;28;20101;-76
2023/09/25 03:37:31;;;;;;;0.90;0.60;;;17.00;99.90;;;;;;5084481;28;20044;-76
2023/09/25 03:39:58;;;;;;;1.33;0.77;;;17.00;99.90;;;;;;5069264;28;20044;-75
2023/09/25 03:42:24;;;;;;;1.23;0.73;;;17.10;99.90;;;;;;5085460;28;20051;-76
2023/09/25 03:44:51;;;;;;;1.65;0.70;;;17.10;99.90;;;;;;5085532;28;20056;-76
2023/09/25 03:47:21;;;;;;;1.67;0.77;;;17.10;99.90;;;;;;5085421;28;20048;-76
2023/09/25 03:49:48;;;;;;;1.42;0.77;;;17.10;99.90;;;;;;5068622;28;20511;-76
2023/09/25 03:52:15;;;;;;;1.15;0.70;;;17.20;99.90;;;;;;5067643;28;20036;-76
2023/09/25 03:54:42;;;;;;;0.50;0.50;;;17.20;99.90;;;;;;5085820;28;20616;-76
2023/09/25 03:57:09;;;;;;;1.00;0.70;;;17.20;99.90;;;;;;5068475;28;20055;-76
2023/09/25 03:59:35;;;;;;;0.95;0.70;;;17.20;99.90;;;;;;5085511;28;20040;-76
2023/09/25 04:02:02;;;;;;;1.38;0.90;;;17.20;99.90;;;;;;5068089;28;20040;-76
2023/09/25 04:04:29;;;;;;;0.80;0.60;;;17.20;99.90;;;;;;5085734;28;20044;-76
2023/09/25 04:06:56;;;;;;;0.80;0.60;;;17.20;99.90;;;;;;5067237;28;20590;-75
2023/09/25 04:09:23;;;;;;;1.00;0.70;;;17.20;99.90;;;;;;5056343;28;20102;-75
2023/09/25 04:11:50;;;;;;;1.48;0.80;;;17.20;99.90;;;;;;5066332;28;20040;-76
2023/09/25 04:14:17;;;;;;;1.80;1.00;;;17.20;99.90;;;;;;5063950;28;20043;-75
2023/09/25 04:16:45;;;;;;;0.85;0.55;;;17.20;99.90;;;;;;5067971;28;20048;-76
2023/09/25 04:19:12;;;;;;;0.68;0.40;;;17.20;99.90;;;;;;5085006;28;20108;-75
2023/09/25 04:21:40;;;;;;;0.50;0.50;;;17.20;99.90;;;;;;5067088;28;20497;-76
2023/09/25 04:24:10;;;;;;;1.20;0.65;;;17.20;1.00;;;;;;5085052;28;20286;-76
2023/09/25 04:26:39;;;;;;;0.93;0.63;;;17.20;1.00;;;;;;5085754;28;20044;-77
2023/09/25 04:29:09;;;;;;;0.57;0.55;;;17.20;1.00;;;;;;5052256;28;20109;-76
2023/09/25 04:31:37;;;;;;;1.17;0.60;;;17.20;14.60;;;;;;5084329;28;20051;-77
2023/09/25 04:34:04;;;;;;;0.85;0.45;;;17.20;39.50;;;;;;5035973;28;20051;-77
2023/09/25 04:36:31;;;;;;;2.47;0.70;;;17.20;73.70;;;;;;5065733;28;20048;-76
2023/09/25 04:38:58;;;;;;;0.65;0.50;;;17.10;99.90;;;;;;5067098;28;20138;-76
2023/09/25 04:41:25;;;;;;;0.75;0.57;;;17.10;99.90;;;;;;5067684;28;20060;-76
2023/09/25 04:43:52;;;;;;;1.58;0.80;;;17.10;99.90;;;;;;5044074;28;20186;-77
2023/09/25 04:46:19;;;;;;;1.35;0.82;;;17.10;1.00;;;;;;5049355;28;20487;-77
2023/09/25 04:48:47;;;;;;;1.33;0.80;;;17.00;1.00;;;;;;5030751;28;20052;-76
2023/09/25 04:51:17;;;;;;;1.05;0.70;;;17.00;30.10;;;;;;5047535;28;20543;-76
2023/09/25 04:53:44;;;;;;;1.13;0.60;;;16.90;99.90;;;;;;5071205;28;20123;-76
2023/09/25 04:56:19;;;;;;;1.45;0.88;;;16.90;99.90;;;;;;5049385;28;20455;-76
2023/09/25 04:58:45;;;;;;;1.35;0.68;;;16.80;99.90;;;;;;5065648;28;20416;-76
2023/09/25 05:01:12;;;;;;;1.25;0.85;;;16.80;1.00;;;;;;5038316;28;20049;-76
2023/09/25 05:03:40;;;;;;;1.05;0.60;;;16.80;1.00;;;;;;5071367;28;20060;-77
2023/09/25 05:06:10;;;;;;;1.10;0.70;;;16.70;1.00;;;;;;5071580;28;20040;-76
2023/09/25 05:08:38;;;;;;;0.73;0.52;;;16.70;1.00;;;;;;5071686;28;20051;-76
2023/09/25 05:11:08;;;;;;;1.17;0.50;;;16.60;99.90;;;;;;5073033;28;20563;-76
2023/09/25 05:13:34;;;;;;;0.85;0.52;;;16.60;99.90;;;;;;5074583;28;20052;-76
2023/09/25 05:16:02;;;;;;;0.47;0.40;;;16.60;99.90;;;;;;5059952;28;20116;-76
2023/09/25 05:18:32;;;;;;;1.30;0.70;;;16.60;99.90;;;;;;5072923;28;20332;-76
2023/09/25 05:20:58;;;;;;;0.68;0.60;;;16.50;99.90;;;;;;5069245;28;20056;-76
2023/09/25 05:23:25;;;;;;;1.10;0.70;;;16.40;99.90;;;;;;5086614;28;20066;-76
2023/09/25 05:25:56;;;;;;;0.98;0.50;;;16.40;99.90;;;;;;5057343;28;20051;-76
2023/09/25 05:28:23;;;;;;;0.57;0.47;;;16.40;99.90;;;;;;5073937;28;20418;-75
2023/09/25 05:30:52;;;;;;;0.90;0.60;;;16.30;99.90;;;;;;5054350;28;20156;-76
2023/09/25 05:33:20;;;;;;;0.80;0.57;;;16.30;99.90;;;;;;5073673;28;20077;-76
2023/09/25 05:35:48;;;;;;;1.08;0.80;;;16.30;99.90;;;;;;5060400;28;20055;-76
2023/09/25 05:38:18;;;;;;;0.60;0.50;;;16.20;99.90;;;;;;5065216;28;20052;-75
2023/09/25 05:40:44;;;;;;;0.98;0.63;;;16.10;99.90;;;;;;5036945;28;20245;-75
2023/09/25 05:43:11;;;;;;;0.85;0.38;;;16.10;99.90;;;;;;5065776;28;20063;-76
2023/09/25 05:45:38;;;;;;;0.30;0.30;;;16.00;99.90;;;;;;5060540;28;20109;-77
2023/09/25 05:48:05;;;;;;;0.90;0.60;;;16.00;99.90;;;;;;5080649;28;20060;-78
2023/09/25 05:50:33;;;;;;;0.63;0.40;;;16.00;99.90;;;;;;5074023;28;20335;-76
2023/09/25 05:53:01;;;;;;;0.45;0.30;;;16.00;99.90;;;;;;5077233;28;20063;-77
2023/09/25 05:55:28;;;;;;;0.93;0.52;;;16.00;99.90;;;;;;5077319;28;20138;-76
2023/09/25 05:57:55;;;;;;;0.40;0.40;;;16.00;99.90;;;;;;5075849;28;20055;-76
2023/09/25 06:00:22;;;;;;;0.80;0.60;;;15.90;99.90;;;;;;5077515;28;20127;-77
2023/09/25 06:02:50;;;;;;;0.77;0.70;;;15.90;99.90;;;;;;5075824;28;20136;-78
2023/09/25 06:05:18;;;;;;;0.55;0.50;;;15.80;99.90;;;;;;5057486;28;20215;-78
2023/09/25 06:07:45;;;;;;;1.02;0.60;;;15.80;99.90;;;;;;5062714;28;20048;-77
2023/09/25 06:10:12;;;;;;;0.88;0.60;;;15.80;99.90;;;;;;5065791;28;20186;-78
2023/09/25 06:12:39;;;;;;;1.05;0.55;;;15.80;99.90;;;;;;5065117;28;20048;-78
2023/09/25 06:15:09;;;;;;;0.50;0.40;;;15.80;1.00;;;;;;5080431;28;20052;-77
2023/09/25 06:17:37;;;;;;;0.50;0.50;;;15.80;1.00;;;;;;5075118;28;20106;-78
2023/09/25 06:20:13;;;;;;;0.40;0.40;;;15.80;1.00;;;;;;5077929;28;20048;-78
2023/09/25 06:22:40;;;;;;;1.65;0.57;;;15.80;1.00;;;;;;5046245;28;20129;-78
2023/09/25 06:25:17;;;;;;;0.60;0.60;;;15.80;1.00;;;;;;5064573;28;20036;-78
2023/09/25 06:27:45;;;;;;;0.50;0.30;;;15.90;1.00;;;;;;5082532;28;20134;-78
2023/09/25 06:30:14;;;;;;;0.30;0.30;;;15.90;1.00;;;;;;5067599;28;20130;-78
2023/09/25 06:32:41;;;;;;;0.38;0.30;;;15.80;1.00;;;;;;5085625;28;20048;-77
2023/09/25 06:35:08;;;;;;;0.30;0.30;;;15.90;1.00;;;;;;5054773;28;20044;-77
2023/09/25 06:37:35;;;;;;;0.63;0.40;;;15.80;1.00;;;;;;5085623;28;20102;-78
2023/09/25 06:40:09;;;;;;;1.05;0.35;;;15.80;1.00;;;;;;5070508;28;20040;-78
2023/09/25 06:42:38;;;;;;;0.65;0.32;;;15.80;1.00;;;;;;5092157;28;20043;-78
2023/09/25 06:45:05;;;;;;;1.02;0.40;;;15.90;1.00;;;;;;5058339;28;20510;-78
2023/09/25 06:47:33;;;;;;;0.55;0.50;;;15.90;1.00;;;;;;5088446;28;20055;-78
2023/09/25 06:50:00;;;;;;;0.60;0.50;;;16.00;1.00;;;;;;5085284;28;20085;-77
2023/09/25 06:52:27;;;;;;;0.70;0.35;;;16.00;1.00;;;;;;5084892;28;20044;-78
2023/09/25 06:54:54;;;;;;;0.50;0.32;;;16.00;1.00;;;;;;5087800;28;20430;-78
2023/09/25 06:57:21;;;;;;;1.48;0.50;;;16.10;1.00;;;;;;5084033;28;20522;-78
2023/09/25 06:59:48;;;;;;;0.50;0.50;;;16.10;1.00;;;;;;5083718;28;20075;-78
2023/09/25 07:02:15;;;;;;;0.73;0.43;;;16.10;1.00;;;;;;5084947;28;20131;-78
2023/09/25 07:04:42;;;;;;;0.88;0.43;;;16.20;1.00;;;;;;5083036;28;20058;-78
2023/09/25 07:07:09;;;;;;;1.02;0.40;;;16.20;1.00;;;;;;5084309;28;20052;-78
2023/09/25 07:09:36;;;;;;;1.67;0.90;;;16.30;1.00;;;;;;5070599;28;20479;-78
2023/09/25 07:12:03;;;;;;;1.35;0.70;;;16.30;99.90;;;;;;5088099;28;20438;-77
2023/09/25 07:14:30;;;;;;;0.60;0.50;;;16.40;99.90;;;;;;5064871;28;20545;-77
2023/09/25 07:16:57;;;;;;;1.75;0.77;;;16.40;99.90;;;;;;5088784;28;20231;-78
2023/09/25 07:19:24;;;;;;;0.75;0.60;;;16.50;99.90;;;;;;5087207;28;20105;-77
2023/09/25 07:21:50;;;;;;;0.85;0.43;;;16.50;99.90;;;;;;5085308;28;20059;-78
2023/09/25 07:24:17;;;;;;;1.38;0.75;;;16.60;99.90;;;;;;5050800;28;20105;-77
2023/09/25 07:26:44;;;;;;;1.23;0.65;;;16.60;99.90;;;;;;5083488;28;20266;-77
2023/09/25 07:29:11;;;;;;;1.17;0.68;;;16.60;99.90;;;;;;5083727;28;20048;-77
2023/09/25 07:31:56;;;;;;;1.45;0.80;;;16.70;99.90;;;;;;5066313;28;20051;-78
2023/09/25 07:34:23;;;;;;;0.65;0.43;;;16.70;99.90;;;;;;5081692;28;20458;-78
2023/09/25 07:36:50;;;;;;;2.03;0.90;;;16.70;69.50;;;;;;5076044;28;20052;-77
2023/09/25 07:39:22;;;;;;;1.08;0.60;;;16.80;1.00;;;;;;5085028;28;20074;-77
2023/09/25 07:41:50;;;;;;;1.80;0.80;;;16.80;1.00;;;;;;5083065;28;20109;-77
2023/09/25 07:44:16;;;;;;;2.58;0.80;;;16.90;99.90;;;;;;5083272;28;20048;-78
2023/09/25 07:46:47;;;;;;;1.45;0.73;;;16.90;99.90;;;;;;5087891;28;20056;-77
2023/09/25 07:49:14;;;;;;;1.67;0.70;;;16.90;1.00;;;;;;5087166;28;20051;-78
2023/09/25 07:51:41;;;;;;;1.75;0.80;;;16.90;99.90;;;;;;5085355;28;20511;-78
2023/09/25 07:54:08;;;;;;;1.98;1.08;;;17.00;99.90;;;;;;5086385;28;20403;-77
2023/09/25 07:56:35;;;;;;;2.45;0.90;;;17.10;1.00;;;;;;5069124;28;20527;-78
2023/09/25 07:59:02;;;;;;;1.73;0.88;;;17.10;99.90;;;;;;5069044;28;20060;-77
2023/09/25 08:01:29;;;;;;;1.52;0.85;;;17.10;1.00;;;;;;5084584;28;20054;-78
2023/09/25 08:03:57;;;;;;;1.48;0.75;;;17.20;1.00;;;;;;5049698;28;20064;-77
2023/09/25 08:06:24;;;;;;;1.17;0.60;;;17.20;99.90;;;;;;5052769;28;20106;-78
2023/09/25 08:08:54;;;;;;;1.85;0.70;;;17.30;6.00;;;;;;5061002;28;20044;-78
2023/09/25 08:11:21;;;;;;;1.58;0.77;;;17.40;99.90;;;;;;5070876;28;20066;-77
2023/09/25 08:13:48;;;;;;;1.38;0.68;;;17.50;1.00;;;;;;5075628;28;20513;-77
2023/09/25 08:16:16;;;;;;;1.77;0.88;;;17.60;1.00;;;;;;5090829;28;20083;-77
2023/09/25 08:18:43;;;;;;;1.30;0.80;;;17.60;99.90;;;;;;5079229;28;20454;-77
2023/09/25 08:21:10;;;;;;;3.05;1.10;;;17.60;99.90;;;;;;5073078;28;20467;-77
2023/09/25 08:23:37;;;;;;;1.98;0.93;;;17.60;1.00;;;;;;5057093;28;20044;-77
2023/09/25 08:26:07;;;;;;;1.60;0.90;;;17.60;1.00;;;;;;5075098;28;20104;-78
2023/09/25 08:28:34;;;;;;;2.10;1.23;;;17.70;1.00;;;;;;5079480;28;20055;-77
2023/09/25 08:31:01;;;;;;;3.88;1.38;;;17.70;1.00;;;;;;5077526;28;20048;-78
2023/09/25 08:33:28;;;;;;;2.03;1.00;;;17.70;99.90;;;;;;5041733;28;20079;-78
2023/09/25 08:35:54;;;;;;;2.20;1.00;;;17.70;99.90;;;;;;5076758;28;20052;-77
2023/09/25 08:38:21;;;;;;;2.15;1.00;;;17.80;99.90;;;;;;5077100;28;20051;-78
2023/09/25 08:40:49;;;;;;;3.10;1.25;;;17.80;99.90;;;;;;5078891;28;20044;-78
2023/09/25 08:43:16;;;;;;;3.17;1.20;;;17.90;99.90;;;;;;5081916;28;20055;-78
2023/09/25 08:45:50;;;;;;;2.55;1.48;;;18.00;99.90;;;;;;5085673;28;20133;-78
2023/09/25 08:48:17;;;;;;;2.20;0.93;;;18.00;99.90;;;;;;5051936;28;20055;-78
2023/09/25 08:50:44;;;;;;;2.40;1.15;;;18.10;99.90;;;;;;5068553;28;20058;-78
2023/09/25 08:53:11;;;;;;;2.00;1.00;;;18.20;99.90;;;;;;5066842;28;20059;-78
2023/09/25 08:55:38;;;;;;;2.63;1.10;;;18.20;99.90;;;;;;5068314;28;20047;-78
2023/09/25 08:58:07;;;;;;;1.52;0.75;;;18.20;99.90;;;;;;5086681;28;20044;-78
2023/09/25 09:00:34;;;;;;;2.17;0.70;;;18.20;99.90;;;;;;5086331;28;20052;-78
2023/09/25 09:03:01;;;;;;;2.58;1.48;;;18.30;99.90;;;;;;5067681;28;20598;-78
2023/09/25 09:05:28;;;;;;;2.95;0.95;;;18.30;99.90;;;;;;5085044;28;20048;-78
2023/09/25 09:08:03;;;;;;;2.95;0.80;;;18.40;99.90;;;;;;5082186;28;20056;-78
2023/09/25 09:10:37;;;;;;;1.02;0.60;;;18.40;99.90;;;;;;5065437;28;20063;-78
2023/09/25 09:13:10;;;;;;;1.52;0.90;;;18.50;99.90;;;;;;5049538;28;20575;-78
2023/09/25 09:15:38;;;;;;;1.77;0.90;;;18.60;99.90;;;;;;5069799;28;20044;-78
2023/09/25 09:18:18;;;;;;;1.30;0.95;;;18.70;99.90;;;;;;5067660;28;20048;-78
2023/09/25 09:20:49;;;;;;;1.23;0.68;;;18.80;99.90;;;;;;5085929;28;20566;-78
2023/09/25 09:23:16;;;;;;;1.45;0.95;;;18.90;99.90;;;;;;5064911;28;20048;-78
2023/09/25 09:25:49;;;;;;;2.03;1.10;;;18.90;99.90;;;;;;5083017;28;20052;-78
2023/09/25 09:28:15;;;;;;;1.42;0.65;;;18.90;99.90;;;;;;5080216;28;20130;-78
2023/09/25 09:30:42;;;;;;;1.30;0.80;;;19.00;99.90;;;;;;5060902;28;20052;-78
2023/09/25 09:33:10;;;;;;;1.85;0.98;;;19.10;99.90;;;;;;5072845;28;20052;-78
2023/09/25 09:35:37;;;;;;;2.65;1.23;;;19.10;99.90;;;;;;5066677;28;20044;-78
2023/09/25 09:38:04;;;;;;;3.45;1.30;;;19.20;99.90;;;;;;5080234;28;20189;-78
2023/09/25 09:40:30;;;;;;;2.47;1.15;;;19.20;99.90;;;;;;5081700;28;20078;-78
2023/09/25 09:42:57;;;;;;;1.85;0.90;;;19.20;99.90;;;;;;5083984;28;20125;-78
2023/09/25 09:45:24;;;;;;;1.70;1.00;;;19.20;99.90;;;;;;5067943;28;20044;-78
2023/09/25 09:47:51;;;;;;;2.92;1.10;;;19.30;99.90;;;;;;5084460;28;20047;-78
2023/09/25 09:50:22;;;;;;;1.95;0.95;;;19.40;99.90;;;;;;5050888;28;20075;-78
2023/09/25 09:52:49;;;;;;;1.20;0.80;;;19.40;99.90;;;;;;5049741;28;20045;-78
2023/09/25 09:55:17;;;;;;;2.03;1.10;;;19.40;99.90;;;;;;5051262;28;20056;-78
2023/09/25 09:57:44;;;;;;;1.80;1.10;;;19.50;99.90;;;;;;5064627;28;20040;-78
2023/09/25 10:00:11;;;;;;;1.95;1.08;;;19.60;99.90;;;;;;5082494;28;20131;-78
2023/09/25 10:02:38;;;;;;;3.33;1.17;;;19.60;99.90;;;;;;5080037;28;20044;-78
2023/09/25 10:05:06;;;;;;;1.55;0.90;;;19.70;99.90;;;;;;5080267;28;20060;-77
2023/09/25 10:07:33;;;;;;;0.93;0.60;;;19.80;99.90;;;;;;5083132;28;20048;-77
2023/09/25 10:10:06;;;;;;;1.38;0.80;;;20.00;99.90;;;;;;5084959;28;20048;-78
2023/09/25 10:12:49;;;;;;;3.03;0.95;;;20.10;99.90;;;;;;5083861;28;20048;-78
2023/09/25 10:15:22;;;;;;;1.45;0.80;;;20.10;99.90;;;;;;5069284;28;20044;-78
2023/09/25 10:17:49;;;;;;;1.45;0.90;;;20.30;99.90;;;;;;5067220;28;20048;-78
2023/09/25 10:20:48;;;;;;;1.80;0.88;;;20.30;99.90;;;;;;5064399;28;20052;-77
2023/09/25 10:23:21;;;;;;;2.42;1.15;;;20.40;99.90;;;;;;5034867;28;20088;-78
2023/09/25 10:26:02;;;;;;;1.67;0.90;;;20.50;99.90;;;;;;5047006;28;20098;-78
2023/09/25 10:28:33;;;;;;;2.53;1.00;;;20.60;99.90;;;;;;5064250;28;20354;-78
2023/09/25 10:31:01;;;;;;;1.77;0.73;;;20.70;99.90;;;;;;5063576;28;20267;-78
2023/09/25 10:33:36;;;;;;;1.67;0.82;;;20.80;99.90;;;;;;5081397;28;20510;-77
2023/09/25 10:36:05;;;;;;;1.35;0.73;;;20.80;99.90;;;;;;5067604;28;20525;-77
2023/09/25 10:38:34;;;;;;;1.42;1.00;;;20.90;99.90;;;;;;5065764;28;20074;-78
2023/09/25 10:41:07;;;;;;;1.58;0.90;;;20.90;98.00;;;;;;5067319;28;20193;-78
2023/09/25 10:43:35;;;;;;;2.40;1.02;;;20.80;89.10;;;;;;5083498;28;20120;-78
2023/09/25 10:46:02;;;;;;;2.67;1.15;;;20.80;86.70;;;;;;5063823;28;20090;-78
2023/09/25 10:48:29;;;;;;;2.45;1.20;;;20.70;87.90;;;;;;5045631;28;20045;-78
2023/09/25 10:50:56;;;;;;;1.33;0.75;;;20.70;86.30;;;;;;5076997;28;20056;-78
2023/09/25 10:53:23;;;;;;;1.77;0.80;;;20.70;87.20;;;;;;5079030;28;20143;-78
2023/09/25 10:55:50;;;;;;;2.10;0.82;;;20.90;86.80;;;;;;5080520;28;20112;-78
2023/09/25 10:58:18;;;;;;;1.55;0.90;;;20.80;80.30;;;;;;5064020;28;20059;-78
2023/09/25 11:00:46;;;;;;;1.23;0.93;;;20.80;90.50;;;;;;5048194;28;20121;-78
2023/09/25 11:03:13;;;;;;;1.85;1.00;;;20.90;77.80;;;;;;5066613;28;20063;-78
2023/09/25 11:05:40;;;;;;;2.22;1.00;;;21.00;77.80;;;;;;5067251;28;20502;-78
2023/09/25 11:08:10;;;;;;;1.67;1.00;;;21.00;75.80;;;;;;5065759;28;20120;-77
2023/09/25 11:10:37;;;;;;;1.58;0.90;;;21.20;77.30;;;;;;5068733;28;20088;-78
2023/09/25 11:13:04;;;;;;;1.10;0.68;;;21.30;74.50;;;;;;5070577;28;20274;-78
2023/09/25 11:15:37;;;;;;;0.85;0.73;;;21.50;72.00;;;;;;5085851;28;20113;-78
2023/09/25 11:18:08;;;;;;;2.72;1.00;;;21.60;63.10;;;;;;5083740;28;20465;-78
2023/09/25 11:20:37;;;;;;;1.58;0.98;;;21.80;61.50;;;;;;5068078;28;20123;-78
2023/09/25 11:23:15;;;;;;;1.90;0.80;;;21.90;59.30;;;;;;5048977;28;20129;-78
2023/09/25 11:25:52;;;;;;;1.33;0.70;;;22.00;56.80;;;;;;5052065;28;20139;-78
2023/09/25 11:28:20;;;;;;;2.60;0.80;;;22.10;57.00;;;;;;5085511;28;20048;-78
2023/09/25 11:30:48;;;;;;;1.77;0.90;;;22.40;53.40;;;;;;5070312;28;20068;-78
2023/09/25 11:33:19;;;;;;;1.08;0.75;;;22.50;52.60;;;;;;5086821;28;20137;-78
2023/09/25 11:35:49;;;;;;;3.15;0.80;;;22.60;48.40;;;;;;5054523;28;20048;-78
2023/09/25 11:38:19;;;;;;;1.38;0.80;;;22.50;48.70;;;;;;5069892;28;20062;-78
2023/09/25 11:40:46;;;;;;;1.70;1.00;;;22.70;48.20;;;;;;5070308;28;20051;-78
2023/09/25 11:43:13;;;;;;;2.45;0.90;;;22.80;46.00;;;;;;5065427;28;20052;-78
2023/09/25 11:45:40;;;;;;;2.28;1.27;;;22.80;43.00;;;;;;5063933;28;20116;-79
2023/09/25 11:48:10;;;;;;;1.30;0.75;;;22.80;40.00;;;;;;5082476;28;20052;-78
2023/09/25 11:50:37;;;;;;;1.83;1.00;;;23.00;40.90;;;;;;5062437;28;20129;-78
2023/09/25 11:53:04;;;;;;;1.25;0.80;;;23.10;41.40;;;;;;5057455;28;20070;-78
2023/09/25 11:55:31;;;;;;;1.55;0.90;;;23.20;42.80;;;;;;5064075;28;20575;-78
2023/09/25 11:57:58;;;;;;;2.03;1.05;;;23.40;42.50;;;;;;5082739;28;20101;-78
2023/09/25 12:00:29;;;;;;;1.52;0.77;;;23.50;39.90;;;;;;5077130;28;20143;-78
2023/09/25 12:02:56;;;;;;;1.65;0.70;;;23.60;37.10;;;;;;5052095;28;20060;-78
2023/09/25 12:05:24;;;;;;;0.60;0.50;;;23.60;35.10;;;;;;5059418;28;20048;-78
2023/09/25 12:07:51;;;;;;;1.48;1.00;;;23.70;30.80;;;;;;5062795;28;20419;-78
2023/09/25 12:10:19;;;;;;;1.63;0.95;;;23.70;28.90;;;;;;5066110;28;20056;-78
2023/09/25 12:12:49;;;;;;;2.03;0.90;;;23.90;30.80;;;;;;5059237;28;20040;-78
2023/09/25 12:15:17;;;;;;;2.40;1.10;;;24.00;29.50;;;;;;5057563;28;20149;-78
2023/09/25 12:17:44;;;;;;;1.88;0.80;;;23.90;26.20;;;;;;5077966;28;20048;-78
2023/09/25 12:20:14;;;;;;;2.65;1.17;;;24.00;26.20;;;;;;5059980;28;20070;-78
2023/09/25 12:22:43;;;;;;;1.75;0.75;;;24.00;25.70;;;;;;5073100;28;20044;-79
2023/09/25 12:25:11;;;;;;;2.35;1.20;;;24.30;26.20;;;;;;5060014;28;20094;-79
2023/09/25 12:27:39;;;;;;;2.10;1.10;;;24.60;32.30;;;;;;5078774;28;20468;-79
2023/09/25 12:30:14;;;;;;;1.70;0.75;;;24.80;20.90;;;;;;5057474;28;20119;-78
2023/09/25 12:32:58;;;;;;;2.20;1.02;;;24.70;18.50;;;;;;5057369;28;20136;-79
2023/09/25 12:35:26;;;;;;;1.50;0.85;;;24.60;17.80;;;;;;5078543;28;20044;-79
2023/09/25 12:37:56;;;;;;;2.13;1.13;;;24.60;17.50;;;;;;5077291;28;20048;-79
2023/09/25 12:40:24;;;;;;;1.85;1.00;;;24.90;17.30;;;;;;5062455;28;20059;-79
2023/09/25 12:42:51;;;;;;;1.70;1.27;;;25.30;16.10;;;;;;5080601;28;20047;-78
2023/09/25 12:45:22;;;;;;;3.03;1.20;;;25.00;12.40;;;;;;5077103;28;20052;-77
2023/09/25 12:47:50;;;;;;;1.88;1.17;;;25.20;10.50;;;;;;5072074;28;20044;-78
2023/09/25 12:50:17;;;;;;;1.55;0.80;;;25.50;10.70;;;;;;5078101;28;20044;-78
2023/09/25 12:52:46;;;;;;;1.38;0.80;;;25.70;10.80;;;;;;5073032;28;20044;-78
2023/09/25 12:55:13;;;;;;;1.30;0.80;;;26.20;10.10;;;;;;5078265;28;20144;-78